sensor_id;sensor_type;location;lat;lon;timestamp;pressure;altitude;pressure_sealevel;temperature;humidity
15529;BME280;7866;52.280;9.500;2023-03-01T00:02:17;101865.06;;;-1.39;78.17
15529;BME280;7866;52.280;9.500;2023-03-01T00:07:21;101859.50;;;-1.57;78.18
15529;BME280;7866;52.280;9.500;2023-03-01T00:12:22;101856.97;;;-1.58;78.04
15529;BME280;7866;52.280;9.500;2023-03-01T00:17:24;101862.25;;;-1.60;78.91
15529;BME280;7866;52.280;9.500;2023-03-01T00:22:27;101866.91;;;-1.68;79.08
15529;BME280;7866;52.280;9.500;2023-03-01T00:27:29;101863.56;;;-1.71;78.38
15529;BME280;7866;52.280;9.500;2023-03-01T00:32:31;101860.03;;;-1.72;77.92
15529;BME280;7866;52.280;9.500;2023-03-01T00:37:34;101850.53;;;-1.75;78.16
15529;BME280;7866;52.280;9.500;2023-03-01T00:42:36;101865.28;;;-1.72;78.46
15529;BME280;7866;52.280;9.500;2023-03-01T00:47:38;101859.44;;;-1.80;78.21
15529;BME280;7866;52.280;9.500;2023-03-01T00:52:41;101844.09;;;-1.91;78.68
15529;BME280;7866;52.280;9.500;2023-03-01T00:57:43;101837.22;;;-1.95;78.74
15529;BME280;7866;52.280;9.500;2023-03-01T01:02:44;101838.69;;;-1.86;78.25
15529;BME280;7866;52.280;9.500;2023-03-01T01:07:48;101837.00;;;-1.89;78.18
15529;BME280;7866;52.280;9.500;2023-03-01T01:12:49;101837.22;;;-1.95;78.28
15529;BME280;7866;52.280;9.500;2023-03-01T01:17:51;101838.94;;;-1.94;78.69
15529;BME280;7866;52.280;9.500;2023-03-01T01:22:54;101833.69;;;-1.94;78.58
15529;BME280;7866;52.280;9.500;2023-03-01T01:27:55;101838.94;;;-1.94;78.17
15529;BME280;7866;52.280;9.500;2023-03-01T01:32:57;101823.38;;;-2.00;78.63
15529;BME280;7866;52.280;9.500;2023-03-01T01:38:00;101816.53;;;-2.04;78.22
15529;BME280;7866;52.280;9.500;2023-03-01T01:43:02;101812.44;;;-2.13;78.84
15529;BME280;7866;52.280;9.500;2023-03-01T01:48:06;101811.50;;;-2.10;78.76
15529;BME280;7866;52.280;9.500;2023-03-01T01:53:16;101805.22;;;-2.06;78.57
15529;BME280;7866;52.280;9.500;2023-03-01T01:58:20;101804.72;;;-2.17;78.95
15529;BME280;7866;52.280;9.500;2023-03-01T02:03:24;101811.94;;;-2.24;79.01
15529;BME280;7866;52.280;9.500;2023-03-01T02:08:32;101807.53;;;-2.24;78.86
15529;BME280;7866;52.280;9.500;2023-03-01T02:13:35;101804.13;;;-2.26;79.43
15529;BME280;7866;52.280;9.500;2023-03-01T02:18:38;101810.16;;;-2.24;78.97
15529;BME280;7866;52.280;9.500;2023-03-01T02:23:41;101811.19;;;-2.28;78.91
15529;BME280;7866;52.280;9.500;2023-03-01T02:28:45;101790.47;;;-2.35;78.94
15529;BME280;7866;52.280;9.500;2023-03-01T02:33:47;101786.97;;;-2.36;79.10
15529;BME280;7866;52.280;9.500;2023-03-01T02:38:50;101787.09;;;-2.39;79.39
15529;BME280;7866;52.280;9.500;2023-03-01T02:43:55;101790.47;;;-2.35;79.02
15529;BME280;7866;52.280;9.500;2023-03-01T02:48:58;101788.28;;;-2.49;79.36
15529;BME280;7866;52.280;9.500;2023-03-01T02:54:08;101773.50;;;-2.52;79.53
15529;BME280;7866;52.280;9.500;2023-03-01T02:59:16;101769.16;;;-2.53;79.95
15529;BME280;7866;52.280;9.500;2023-03-01T03:04:19;101758.28;;;-2.40;79.61
15529;BME280;7866;52.280;9.500;2023-03-01T03:09:21;101767.72;;;-2.35;79.61
15529;BME280;7866;52.280;9.500;2023-03-01T03:14:24;101762.56;;;-2.64;79.78
15529;BME280;7866;52.280;9.500;2023-03-01T03:19:26;101755.25;;;-2.55;79.85
15529;BME280;7866;52.280;9.500;2023-03-01T03:24:27;101744.19;;;-2.64;80.25
15529;BME280;7866;52.280;9.500;2023-03-01T03:29:39;101735.22;;;-2.57;80.50
15529;BME280;7866;52.280;9.500;2023-03-01T03:34:41;101739.56;;;-2.56;80.47
15529;BME280;7866;52.280;9.500;2023-03-01T03:39:42;101733.31;;;-2.52;80.50
15529;BME280;7866;52.280;9.500;2023-03-01T03:44:45;101733.69;;;-2.63;80.34
15529;BME280;7866;52.280;9.500;2023-03-01T03:49:47;101736.50;;;-2.69;80.12
15529;BME280;7866;52.280;9.500;2023-03-01T03:54:48;101722.72;;;-2.76;80.57
15529;BME280;7866;52.280;9.500;2023-03-01T03:59:51;101726.75;;;-2.65;80.46
15529;BME280;7866;52.280;9.500;2023-03-01T04:04:53;101728.16;;;-2.82;80.75
15529;BME280;7866;52.280;9.500;2023-03-01T04:09:55;101736.56;;;-2.70;80.83
15529;BME280;7866;52.280;9.500;2023-03-01T04:14:57;101741.56;;;-2.64;80.70
15529;BME280;7866;52.280;9.500;2023-03-01T04:19:59;101738.66;;;-2.82;80.35
15529;BME280;7866;52.280;9.500;2023-03-01T04:25:06;101738.75;;;-2.85;81.30
15529;BME280;7866;52.280;9.500;2023-03-01T04:30:10;101744.84;;;-2.84;80.66
15529;BME280;7866;52.280;9.500;2023-03-01T04:35:12;101741.44;;;-2.86;80.89
15529;BME280;7866;52.280;9.500;2023-03-01T04:40:14;101743.81;;;-2.79;80.60
15529;BME280;7866;52.280;9.500;2023-03-01T04:45:18;101748.19;;;-2.79;80.28
15529;BME280;7866;52.280;9.500;2023-03-01T04:50:20;101753.44;;;-2.79;80.01
15529;BME280;7866;52.280;9.500;2023-03-01T04:55:24;101739.69;;;-2.87;79.96
15529;BME280;7866;52.280;9.500;2023-03-01T05:00:27;101740.06;;;-2.98;79.88
15529;BME280;7866;52.280;9.500;2023-03-01T05:05:32;101735.50;;;-2.93;80.25
15529;BME280;7866;52.280;9.500;2023-03-01T05:10:35;101731.28;;;-2.97;80.33
15529;BME280;7866;52.280;9.500;2023-03-01T05:15:40;101738.97;;;-2.91;80.83
15529;BME280;7866;52.280;9.500;2023-03-01T05:20:42;101727.97;;;-3.04;80.48
15529;BME280;7866;52.280;9.500;2023-03-01T05:25:44;101723.31;;;-2.94;80.21
15529;BME280;7866;52.280;9.500;2023-03-01T05:30:47;101717.56;;;-3.05;80.29
15529;BME280;7866;52.280;9.500;2023-03-01T05:35:52;101711.41;;;-3.04;81.03
15529;BME280;7866;52.280;9.500;2023-03-01T05:40:54;101719.94;;;-2.98;80.79
15529;BME280;7866;52.280;9.500;2023-03-01T05:45:57;101711.63;;;-3.10;80.82
15529;BME280;7866;52.280;9.500;2023-03-01T05:51:00;101706.22;;;-3.06;81.10
15529;BME280;7866;52.280;9.500;2023-03-01T05:56:03;101713.56;;;-3.17;81.03
15529;BME280;7866;52.280;9.500;2023-03-01T06:01:11;101717.66;;;-3.08;81.18
15529;BME280;7866;52.280;9.500;2023-03-01T06:06:13;101724.72;;;-3.10;81.01
15529;BME280;7866;52.280;9.500;2023-03-01T06:11:15;101721.09;;;-3.06;80.94
15529;BME280;7866;52.280;9.500;2023-03-01T06:16:18;101720.09;;;-3.02;81.04
15529;BME280;7866;52.280;9.500;2023-03-01T06:21:20;101731.22;;;-2.95;80.57
15529;BME280;7866;52.280;9.500;2023-03-01T06:26:22;101728.59;;;-2.95;80.70
15529;BME280;7866;52.280;9.500;2023-03-01T06:31:25;101731.22;;;-2.95;80.24
15529;BME280;7866;52.280;9.500;2023-03-01T06:36:26;101729.47;;;-2.95;80.49
15529;BME280;7866;52.280;9.500;2023-03-01T06:41:28;101722.22;;;-2.87;80.32
15529;BME280;7866;52.280;9.500;2023-03-01T06:46:31;101723.88;;;-2.84;79.71
15529;BME280;7866;52.280;9.500;2023-03-01T06:51:33;101723.94;;;-2.86;79.81
15529;BME280;7866;52.280;9.500;2023-03-01T06:56:34;101715.75;;;-2.77;79.57
15529;BME280;7866;52.280;9.500;2023-03-01T07:01:37;101730.16;;;-2.63;79.46
15529;BME280;7866;52.280;9.500;2023-03-01T07:06:39;101720.91;;;-2.47;79.71
15529;BME280;7866;52.280;9.500;2023-03-01T07:11:41;101726.41;;;-2.05;79.24
15529;BME280;7866;52.280;9.500;2023-03-01T07:16:44;101719.50;;;-1.82;78.66
15529;BME280;7866;52.280;9.500;2023-03-01T07:21:45;101722.47;;;-1.44;78.37
15529;BME280;7866;52.280;9.500;2023-03-01T07:26:48;101712.47;;;-1.13;76.74
15529;BME280;7866;52.280;9.500;2023-03-01T07:31:51;101706.31;;;-0.90;75.81
15529;BME280;7866;52.280;9.500;2023-03-01T07:36:53;101701.28;;;-0.74;75.45
15529;BME280;7866;52.280;9.500;2023-03-01T07:41:54;101704.97;;;-0.58;74.84
15529;BME280;7866;52.280;9.500;2023-03-01T07:46:57;101698.75;;;-0.55;74.10
15529;BME280;7866;52.280;9.500;2023-03-01T07:51:59;101697.63;;;-0.50;73.60
15529;BME280;7866;52.280;9.500;2023-03-01T07:57:01;101707.91;;;-0.43;73.98
15529;BME280;7866;52.280;9.500;2023-03-01T08:02:04;101693.50;;;-0.35;74.44
15529;BME280;7866;52.280;9.500;2023-03-01T08:07:05;101700.38;;;-0.32;73.62
15529;BME280;7866;52.280;9.500;2023-03-01T08:12:07;101698.34;;;-0.26;74.15
15529;BME280;7866;52.280;9.500;2023-03-01T08:17:10;101706.72;;;-0.16;74.28
15529;BME280;7866;52.280;9.500;2023-03-01T08:22:12;101693.06;;;-0.05;73.86
15529;BME280;7866;52.280;9.500;2023-03-01T08:27:14;101692.25;;;0.13;74.23
15529;BME280;7866;52.280;9.500;2023-03-01T08:32:17;101683.22;;;0.38;72.76
15529;BME280;7866;52.280;9.500;2023-03-01T08:37:19;101691.91;;;0.59;72.97
15529;BME280;7866;52.280;9.500;2023-03-01T08:42:20;101687.22;;;0.84;71.49
15529;BME280;7866;52.280;9.500;2023-03-01T08:47:23;101684.94;;;1.13;71.42
15529;BME280;7866;52.280;9.500;2023-03-01T08:52:26;101682.44;;;1.27;70.11
15529;BME280;7866;52.280;9.500;2023-03-01T08:57:28;101686.72;;;1.47;69.96
15529;BME280;7866;52.280;9.500;2023-03-01T09:02:31;101687.19;;;1.55;69.83
15529;BME280;7866;52.280;9.500;2023-03-01T09:07:32;101683.25;;;1.64;70.24
15529;BME280;7866;52.280;9.500;2023-03-01T09:12:34;101694.91;;;1.60;68.40
15529;BME280;7866;52.280;9.500;2023-03-01T09:17:37;101695.25;;;1.87;68.85
15529;BME280;7866;52.280;9.500;2023-03-01T09:22:39;101686.47;;;1.86;69.28
15529;BME280;7866;52.280;9.500;2023-03-01T09:27:40;101686.38;;;2.05;69.32
15529;BME280;7866;52.280;9.500;2023-03-01T09:32:43;101671.50;;;2.20;69.27
15529;BME280;7866;52.280;9.500;2023-03-01T09:37:45;101679.44;;;2.36;68.57
15529;BME280;7866;52.280;9.500;2023-03-01T09:42:52;101669.13;;;2.47;68.18
15529;BME280;7866;52.280;9.500;2023-03-01T09:47:56;101661.63;;;2.71;67.79
15529;BME280;7866;52.280;9.500;2023-03-01T09:53:01;101654.88;;;2.81;66.80
15529;BME280;7866;52.280;9.500;2023-03-01T09:58:11;101655.22;;;2.75;64.68
15529;BME280;7866;52.280;9.500;2023-03-01T10:03:26;101653.56;;;3.04;64.16
15529;BME280;7866;52.280;9.500;2023-03-01T10:08:33;101662.50;;;2.87;63.78
15529;BME280;7866;52.280;9.500;2023-03-01T10:13:43;101662.50;;;3.17;63.54
15529;BME280;7866;52.280;9.500;2023-03-01T10:18:52;101662.56;;;3.32;64.05
15529;BME280;7866;52.280;9.500;2023-03-01T10:23:54;101671.59;;;3.43;63.72
15529;BME280;7866;52.280;9.500;2023-03-01T10:29:03;101669.44;;;3.34;62.57
15529;BME280;7866;52.280;9.500;2023-03-01T10:34:10;101659.72;;;3.35;62.08
15529;BME280;7866;52.280;9.500;2023-03-01T10:39:17;101665.19;;;3.62;62.78
15529;BME280;7866;52.280;9.500;2023-03-01T10:44:35;101654.31;;;3.66;62.93
15529;BME280;7866;52.280;9.500;2023-03-01T10:49:38;101667.59;;;3.81;62.78
15529;BME280;7866;52.280;9.500;2023-03-01T10:54:40;101655.22;;;3.95;61.29
15529;BME280;7866;52.280;9.500;2023-03-01T10:59:42;101648.66;;;4.01;61.35
15529;BME280;7866;52.280;9.500;2023-03-01T11:04:58;101647.16;;;3.97;60.80
15529;BME280;7866;52.280;9.500;2023-03-01T11:10:11;101641.19;;;4.08;61.01
15529;BME280;7866;52.280;9.500;2023-03-01T11:15:21;101636.50;;;4.40;60.39
15529;BME280;7866;52.280;9.500;2023-03-01T11:20:29;101642.00;;;4.51;60.46
15529;BME280;7866;52.280;9.500;2023-03-01T11:25:34;101629.66;;;4.50;60.87
15529;BME280;7866;52.280;9.500;2023-03-01T11:30:39;101638.50;;;4.78;60.94
15529;BME280;7866;52.280;9.500;2023-03-01T11:35:49;101622.28;;;4.55;57.62
15529;BME280;7866;52.280;9.500;2023-03-01T11:40:58;101615.34;;;4.67;57.95
15529;BME280;7866;52.280;9.500;2023-03-01T11:46:19;101616.69;;;4.87;57.65
15529;BME280;7866;52.280;9.500;2023-03-01T11:51:38;101612.88;;;4.91;58.58
15529;BME280;7866;52.280;9.500;2023-03-01T11:56:46;101609.88;;;4.83;56.90
15529;BME280;7866;52.280;9.500;2023-03-01T12:02:07;101606.28;;;4.97;57.10
15529;BME280;7866;52.280;9.500;2023-03-01T12:07:20;101596.66;;;5.08;57.73
15529;BME280;7866;52.280;9.500;2023-03-01T12:12:37;101592.31;;;5.07;54.21
15529;BME280;7866;52.280;9.500;2023-03-01T12:17:56;101590.31;;;5.24;57.02
15529;BME280;7866;52.280;9.500;2023-03-01T12:23:25;101576.00;;;5.39;56.34
15529;BME280;7866;52.280;9.500;2023-03-01T12:28:40;101572.06;;;5.83;56.94
15529;BME280;7866;52.280;9.500;2023-03-01T12:33:54;101564.09;;;5.83;55.90
15529;BME280;7866;52.280;9.500;2023-03-01T12:39:09;101550.78;;;5.83;54.87
15529;BME280;7866;52.280;9.500;2023-03-01T12:44:39;101551.97;;;5.79;55.64
15529;BME280;7866;52.280;9.500;2023-03-01T12:49:48;101544.00;;;5.79;56.87
15529;BME280;7866;52.280;9.500;2023-03-01T12:54:53;101530.25;;;6.10;54.71
15529;BME280;7866;52.280;9.500;2023-03-01T13:00:08;101532.09;;;6.21;54.99
15529;BME280;7866;52.280;9.500;2023-03-01T13:05:24;101525.09;;;6.44;55.50
15529;BME280;7866;52.280;9.500;2023-03-01T13:10:33;101518.44;;;6.38;54.74
15529;BME280;7866;52.280;9.500;2023-03-01T13:15:36;101512.75;;;6.19;54.91
15529;BME280;7866;52.280;9.500;2023-03-01T13:20:46;101519.53;;;6.71;53.22
15529;BME280;7866;52.280;9.500;2023-03-01T13:26:04;101506.06;;;6.61;50.57
15529;BME280;7866;52.280;9.500;2023-03-01T13:31:08;101498.34;;;6.70;53.20
15529;BME280;7866;52.280;9.500;2023-03-01T13:36:45;101499.75;;;6.86;53.04
15529;BME280;7866;52.280;9.500;2023-03-01T13:41:51;101490.13;;;7.08;50.95
15529;BME280;7866;52.280;9.500;2023-03-01T13:46:56;101477.47;;;6.87;52.69
15529;BME280;7866;52.280;9.500;2023-03-01T13:51:58;101478.78;;;6.71;51.95
15529;BME280;7866;52.280;9.500;2023-03-01T13:57:02;101471.84;;;6.68;52.11
15529;BME280;7866;52.280;9.500;2023-03-01T14:02:12;101466.66;;;6.78;51.91
15529;BME280;7866;52.280;9.500;2023-03-01T14:07:19;101459.72;;;6.99;51.57
15529;BME280;7866;52.280;9.500;2023-03-01T14:12:36;101455.78;;;6.81;50.31
15529;BME280;7866;52.280;9.500;2023-03-01T14:17:47;101466.28;;;7.06;50.15
15529;BME280;7866;52.280;9.500;2023-03-01T14:22:53;101460.84;;;7.19;49.96
15529;BME280;7866;52.280;9.500;2023-03-01T14:28:13;101455.59;;;7.18;49.54
15529;BME280;7866;52.280;9.500;2023-03-01T14:33:20;101452.94;;;7.06;49.03
15529;BME280;7866;52.280;9.500;2023-03-01T14:38:23;101431.41;;;7.43;49.43
15529;BME280;7866;52.280;9.500;2023-03-01T14:43:26;101434.53;;;7.48;50.03
15529;BME280;7866;52.280;9.500;2023-03-01T14:48:28;101422.09;;;7.26;48.68
15529;BME280;7866;52.280;9.500;2023-03-01T14:53:31;101420.28;;;7.27;49.75
15529;BME280;7866;52.280;9.500;2023-03-01T14:58:34;101412.88;;;7.19;49.25
15529;BME280;7866;52.280;9.500;2023-03-01T15:03:37;101415.63;;;6.84;49.86
15529;BME280;7866;52.280;9.500;2023-03-01T15:08:46;101415.13;;;6.90;49.88
15529;BME280;7866;52.280;9.500;2023-03-01T15:13:51;101404.50;;;6.79;50.13
15529;BME280;7866;52.280;9.500;2023-03-01T15:18:54;101401.00;;;6.78;50.27
15529;BME280;7866;52.280;9.500;2023-03-01T15:23:59;101395.53;;;6.80;51.21
15529;BME280;7866;52.280;9.500;2023-03-01T15:29:17;101386.94;;;6.76;49.34
15529;BME280;7866;52.280;9.500;2023-03-01T15:34:22;101378.66;;;6.57;50.62
15529;BME280;7866;52.280;9.500;2023-03-01T15:39:36;101383.38;;;6.53;49.94
15529;BME280;7866;52.280;9.500;2023-03-01T15:44:44;101363.50;;;6.35;51.37
15529;BME280;7866;52.280;9.500;2023-03-01T15:49:46;101358.16;;;6.24;51.59
15529;BME280;7866;52.280;9.500;2023-03-01T15:54:47;101362.69;;;6.10;51.13
15529;BME280;7866;52.280;9.500;2023-03-01T15:59:50;101368.13;;;6.09;52.69
15529;BME280;7866;52.280;9.500;2023-03-01T16:04:52;101366.72;;;5.92;51.72
15529;BME280;7866;52.280;9.500;2023-03-01T16:09:56;101367.88;;;5.88;52.19
15529;BME280;7866;52.280;9.500;2023-03-01T16:14:59;101354.31;;;5.56;54.35
15529;BME280;7866;52.280;9.500;2023-03-01T16:20:01;101348.69;;;5.11;55.77
15529;BME280;7866;52.280;9.500;2023-03-01T16:25:06;101347.44;;;4.53;58.20
15529;BME280;7866;52.280;9.500;2023-03-01T16:30:11;101361.75;;;3.98;59.92
15529;BME280;7866;52.280;9.500;2023-03-01T16:35:15;101363.13;;;3.63;61.55
15529;BME280;7866;52.280;9.500;2023-03-01T16:40:19;101362.22;;;3.50;62.14
15529;BME280;7866;52.280;9.500;2023-03-01T16:45:23;101361.25;;;3.10;63.85
15529;BME280;7866;52.280;9.500;2023-03-01T16:50:25;101370.22;;;2.93;64.76
15529;BME280;7866;52.280;9.500;2023-03-01T16:55:26;101367.50;;;2.80;65.09
15529;BME280;7866;52.280;9.500;2023-03-01T17:00:29;101371.69;;;2.54;66.15
15529;BME280;7866;52.280;9.500;2023-03-01T17:05:31;101373.09;;;2.45;66.81
15529;BME280;7866;52.280;9.500;2023-03-01T17:10:33;101366.59;;;2.37;66.85
15529;BME280;7866;52.280;9.500;2023-03-01T17:15:38;101383.63;;;2.17;67.49
15529;BME280;7866;52.280;9.500;2023-03-01T17:20:39;101385.91;;;2.07;67.84
15529;BME280;7866;52.280;9.500;2023-03-01T17:25:42;101380.56;;;2.09;67.63
15529;BME280;7866;52.280;9.500;2023-03-01T17:30:46;101392.59;;;1.98;68.15
15529;BME280;7866;52.280;9.500;2023-03-01T17:35:49;101397.41;;;1.92;68.52
15529;BME280;7866;52.280;9.500;2023-03-01T17:40:51;101405.13;;;1.79;68.39
15529;BME280;7866;52.280;9.500;2023-03-01T17:45:55;101410.84;;;1.71;68.78
15529;BME280;7866;52.280;9.500;2023-03-01T17:50:57;101410.44;;;1.63;69.10
15529;BME280;7866;52.280;9.500;2023-03-01T17:55:59;101404.97;;;1.66;69.61
15529;BME280;7866;52.280;9.500;2023-03-01T18:01:11;101407.88;;;1.62;69.40
15529;BME280;7866;52.280;9.500;2023-03-01T18:06:14;101401.41;;;1.52;69.12
15529;BME280;7866;52.280;9.500;2023-03-01T18:11:17;101405.66;;;1.38;70.58
15529;BME280;7866;52.280;9.500;2023-03-01T18:16:21;101406.50;;;1.39;70.76
15529;BME280;7866;52.280;9.500;2023-03-01T18:21:23;101405.75;;;1.37;70.73
15529;BME280;7866;52.280;9.500;2023-03-01T18:26:25;101403.69;;;1.26;70.72
15529;BME280;7866;52.280;9.500;2023-03-01T18:31:29;101392.28;;;1.26;70.84
15529;BME280;7866;52.280;9.500;2023-03-01T18:36:34;101390.50;;;1.26;70.47
15529;BME280;7866;52.280;9.500;2023-03-01T18:41:37;101390.47;;;1.10;71.54
15529;BME280;7866;52.280;9.500;2023-03-01T18:46:40;101382.22;;;1.01;71.09
15529;BME280;7866;52.280;9.500;2023-03-01T18:51:42;101386.00;;;0.95;72.00
15529;BME280;7866;52.280;9.500;2023-03-01T18:56:44;101386.84;;;0.95;71.28
15529;BME280;7866;52.280;9.500;2023-03-01T19:01:47;101382.69;;;0.91;71.27
15529;BME280;7866;52.280;9.500;2023-03-01T19:06:48;101390.41;;;0.79;71.78
15529;BME280;7866;52.280;9.500;2023-03-01T19:11:50;101394.47;;;0.51;72.97
15529;BME280;7866;52.280;9.500;2023-03-01T19:16:53;101386.94;;;0.61;72.12
15529;BME280;7866;52.280;9.500;2023-03-01T19:21:55;101386.56;;;0.68;72.30
15529;BME280;7866;52.280;9.500;2023-03-01T19:26:56;101391.19;;;0.63;72.96
15529;BME280;7866;52.280;9.500;2023-03-01T19:31:59;101394.84;;;0.61;72.25
15529;BME280;7866;52.280;9.500;2023-03-01T19:37:01;101399.50;;;0.73;72.27
15529;BME280;7866;52.280;9.500;2023-03-01T19:42:03;101406.22;;;0.79;71.47
15529;BME280;7866;52.280;9.500;2023-03-01T19:47:07;101405.06;;;0.67;72.15
15529;BME280;7866;52.280;9.500;2023-03-01T19:52:08;101405.53;;;0.58;72.42
15529;BME280;7866;52.280;9.500;2023-03-01T19:57:10;101408.91;;;0.44;72.00
15529;BME280;7866;52.280;9.500;2023-03-01T20:02:13;101402.47;;;0.32;73.00
15529;BME280;7866;52.280;9.500;2023-03-01T20:07:15;101410.44;;;0.13;73.83
15529;BME280;7866;52.280;9.500;2023-03-01T20:12:16;101405.50;;;0.24;73.79
15529;BME280;7866;52.280;9.500;2023-03-01T20:17:20;101396.19;;;0.35;73.77
15529;BME280;7866;52.280;9.500;2023-03-01T20:22:21;101398.06;;;0.33;73.12
15529;BME280;7866;52.280;9.500;2023-03-01T20:27:23;101392.78;;;0.33;72.00
15529;BME280;7866;52.280;9.500;2023-03-01T20:32:26;101387.81;;;0.44;72.50
15529;BME280;7866;52.280;9.500;2023-03-01T20:37:27;101381.84;;;0.40;72.25
15529;BME280;7866;52.280;9.500;2023-03-01T20:42:29;101390.84;;;0.36;71.35
15529;BME280;7866;52.280;9.500;2023-03-01T20:47:32;101395.94;;;0.22;72.34
15529;BME280;7866;52.280;9.500;2023-03-01T20:52:34;101389.81;;;0.21;72.19
15529;BME280;7866;52.280;9.500;2023-03-01T20:57:35;101393.00;;;0.11;72.95
15529;BME280;7866;52.280;9.500;2023-03-01T21:02:38;101398.81;;;0.17;73.50
15529;BME280;7866;52.280;9.500;2023-03-01T21:07:40;101394.22;;;0.04;73.33
15529;BME280;7866;52.280;9.500;2023-03-01T21:12:42;101388.50;;;0.13;73.31
15529;BME280;7866;52.280;9.500;2023-03-01T21:17:45;101384.84;;;-0.02;73.48
15529;BME280;7866;52.280;9.500;2023-03-01T21:22:47;101381.81;;;-0.12;73.30
15529;BME280;7866;52.280;9.500;2023-03-01T21:27:48;101382.31;;;-0.04;74.18
15529;BME280;7866;52.280;9.500;2023-03-01T21:32:51;101367.78;;;-0.12;74.00
15529;BME280;7866;52.280;9.500;2023-03-01T21:37:53;101371.44;;;-0.15;74.40
15529;BME280;7866;52.280;9.500;2023-03-01T21:42:55;101369.34;;;-0.08;74.06
15529;BME280;7866;52.280;9.500;2023-03-01T21:47:58;101376.56;;;-0.12;73.17
15529;BME280;7866;52.280;9.500;2023-03-01T21:52:59;101374.06;;;-0.15;74.14
15529;BME280;7866;52.280;9.500;2023-03-01T21:58:04;101369.69;;;-0.33;73.24
15529;BME280;7866;52.280;9.500;2023-03-01T22:03:07;101372.06;;;-0.46;73.99
15529;BME280;7866;52.280;9.500;2023-03-01T22:08:09;101380.31;;;-0.54;74.25
15529;BME280;7866;52.280;9.500;2023-03-01T22:13:10;101369.78;;;-0.54;75.15
15529;BME280;7866;52.280;9.500;2023-03-01T22:18:13;101372.34;;;-0.52;75.17
15529;BME280;7866;52.280;9.500;2023-03-01T22:23:15;101356.28;;;-0.65;75.58
15529;BME280;7866;52.280;9.500;2023-03-01T22:28:17;101354.44;;;-0.63;76.26
15529;BME280;7866;52.280;9.500;2023-03-01T22:33:20;101353.38;;;-0.59;75.18
15529;BME280;7866;52.280;9.500;2023-03-01T22:38:22;101342.09;;;-0.80;77.03
15529;BME280;7866;52.280;9.500;2023-03-01T22:43:24;101347.19;;;-0.77;76.77
15529;BME280;7866;52.280;9.500;2023-03-01T22:48:28;101333.78;;;-0.70;77.04
15529;BME280;7866;52.280;9.500;2023-03-01T22:53:29;101333.91;;;-0.55;75.49
15529;BME280;7866;52.280;9.500;2023-03-01T22:58:31;101326.50;;;-0.65;75.90
15529;BME280;7866;52.280;9.500;2023-03-01T23:03:34;101334.25;;;-0.62;74.87
15529;BME280;7866;52.280;9.500;2023-03-01T23:08:36;101336.69;;;-0.77;74.57
15529;BME280;7866;52.280;9.500;2023-03-01T23:13:38;101339.84;;;-0.87;74.80
15529;BME280;7866;52.280;9.500;2023-03-01T23:18:41;101333.69;;;-0.88;75.72
15529;BME280;7866;52.280;9.500;2023-03-01T23:23:44;101333.84;;;-0.91;75.60
15529;BME280;7866;52.280;9.500;2023-03-01T23:28:46;101334.63;;;-1.08;75.96
15529;BME280;7866;52.280;9.500;2023-03-01T23:33:50;101320.84;;;-1.13;76.22
15529;BME280;7866;52.280;9.500;2023-03-01T23:38:54;101321.19;;;-1.20;77.55
15529;BME280;7866;52.280;9.500;2023-03-01T23:43:58;101322.75;;;-1.16;76.99
15529;BME280;7866;52.280;9.500;2023-03-01T23:49:02;101315.06;;;-1.21;77.39
15529;BME280;7866;52.280;9.500;2023-03-01T23:54:03;101321.03;;;-1.17;77.71
15529;BME280;7866;52.280;9.500;2023-03-01T23:59:07;101328.81;;;-1.14;76.14
